Time;durP1;ratioP1;P1;durP2;ratioP2;P2;SDS_P1;SDS_P2;PMS_P1;PMS_P2;Temp;Humidity;BMP_temperature;BMP_pressure;BME280_temperature;BME280_humidity;BME280_pressure;Samples;Min_cycle;Max_cycle;Signal;HPM_P1;HPM_P2
2021/09/08 00:01:49;;;;;;;7.32;2.70;;;;;;;18.61;49.91;100579.97;5029617;28;20432;-37
2021/09/08 00:04:14;;;;;;;5.72;2.53;;;;;;;18.13;51.18;100584.53;5048732;28;20035;-37
2021/09/08 00:06:39;;;;;;;4.53;2.80;;;;;;;18.28;50.62;100583.28;5049818;28;20037;-37
2021/09/08 00:09:05;;;;;;;5.22;2.63;;;;;;;18.41;50.78;100582.19;5049561;28;20068;-36
2021/09/08 00:11:30;;;;;;;7.85;3.20;;;;;;;18.74;49.95;100587.78;5049870;28;20036;-36
2021/09/08 00:13:56;;;;;;;5.97;2.80;;;;;;;18.12;51.31;100580.19;5049558;28;20029;-36
2021/09/08 00:16:21;;;;;;;6.30;2.70;;;;;;;18.41;50.39;100592.97;5049799;28;20028;-37
2021/09/08 00:18:47;;;;;;;3.80;2.50;;;;;;;18.73;50.23;100593.41;5053072;28;20385;-37
2021/09/08 00:21:12;;;;;;;5.53;2.70;;;;;;;18.74;50.02;100589.69;5053397;28;20032;-36
2021/09/08 00:23:38;;;;;;;4.50;2.70;;;;;;;18.29;51.15;100593.78;5053319;28;20060;-37
2021/09/08 00:26:03;;;;;;;5.88;2.50;;;;;;;18.02;51.21;100590.72;5053296;28;20409;-37
2021/09/08 00:28:28;;;;;;;5.78;2.42;;;;;;;17.63;52.41;100566.06;5053173;28;20040;-37
2021/09/08 00:30:54;;;;;;;6.10;2.90;;;;;;;18.26;51.08;100582.66;5052960;28;20036;-37
2021/09/08 00:33:19;;;;;;;5.82;2.90;;;;;;;18.38;50.56;100580.81;5053046;28;20037;-37
2021/09/08 00:35:45;;;;;;;6.15;2.75;;;;;;;18.50;50.21;100583.50;5053279;28;20029;-36
2021/09/08 00:38:11;;;;;;;3.30;2.35;;;;;;;18.30;50.18;100587.38;5052925;28;20025;-36
2021/09/08 00:40:36;;;;;;;4.70;2.90;;;;;;;18.61;50.09;100579.16;5053114;28;20104;-37
2021/09/08 00:43:02;;;;;;;5.55;2.70;;;;;;;18.59;49.67;100579.38;5053049;28;20050;-37
2021/09/08 00:45:27;;;;;;;5.20;2.60;;;;;;;18.56;49.59;100553.72;5053367;28;20514;-37
2021/09/08 00:47:53;;;;;;;3.95;2.63;;;;;;;18.98;48.83;100574.28;5052822;28;20047;-37
2021/09/08 00:50:18;;;;;;;5.55;2.72;;;;;;;18.91;48.88;100565.53;5053026;28;20021;-37
2021/09/08 00:52:44;;;;;;;6.35;2.63;;;;;;;18.82;49.09;100565.06;5052919;28;20090;-38
2021/09/08 00:55:10;;;;;;;3.70;2.40;;;;;;;18.67;49.24;100559.34;5052731;28;20056;-37
2021/09/08 00:57:35;;;;;;;5.95;2.80;;;;;;;18.66;49.24;100561.22;5052564;28;20025;-37
2021/09/08 01:00:03;;;;;;;6.07;2.75;;;;;;;18.82;49.14;100565.06;5052822;28;20025;-37
2021/09/08 01:02:28;;;;;;;4.22;2.60;;;;;;;18.77;49.00;100562.22;5052640;28;20124;-37
2021/09/08 01:04:54;;;;;;;7.38;2.78;;;;;;;19.01;48.51;100557.63;5052677;28;20033;-37
2021/09/08 01:07:19;;;;;;;5.85;3.00;;;;;;;19.27;47.76;100558.94;5052478;28;20032;-37
2021/09/08 01:09:46;;;;;;;4.32;2.70;;;;;;;19.23;47.85;100556.97;5052386;28;20099;-37
2021/09/08 01:12:11;;;;;;;6.43;2.53;;;;;;;19.02;48.63;100553.91;5052266;28;20025;-37
2021/09/08 01:14:37;;;;;;;5.75;2.70;;;;;;;19.15;48.53;100563.56;5034572;28;20075;-37
2021/09/08 01:17:03;;;;;;;5.45;2.75;;;;;;;19.17;48.15;100566.84;5052105;28;20456;-37
2021/09/08 01:19:28;;;;;;;5.60;2.70;;;;;;;18.94;48.90;100552.41;5052303;28;20021;-37
2021/09/08 01:21:53;;;;;;;6.57;2.75;;;;;;;19.21;48.44;100551.00;5052278;28;20021;-37
2021/09/08 01:24:19;;;;;;;5.82;2.97;;;;;;;19.37;47.59;100547.53;5052364;28;20565;-37
2021/09/08 01:26:47;;;;;;;4.28;2.47;;;;;;;19.33;47.70;100551.78;5051952;28;20031;-36
2021/09/08 01:29:12;;;;;;;3.95;2.65;;;;;;;19.34;47.99;100545.28;5052244;28;20020;-36
2021/09/08 01:31:38;;;;;;;4.13;2.70;;;;;;;19.45;47.44;100546.31;5051960;28;20020;-36
2021/09/08 01:34:04;;;;;;;6.70;2.63;;;;;;;19.47;47.76;100547.69;5051980;28;20025;-36
2021/09/08 01:36:30;;;;;;;6.13;2.85;;;;;;;19.51;47.46;100545.34;5051988;28;20104;-36
2021/09/08 01:38:56;;;;;;;6.53;2.55;;;;;;;19.48;47.57;100548.53;5050385;28;20020;-36
2021/09/08 01:41:21;;;;;;;5.82;2.47;;;;;;;19.17;48.56;100547.13;5051999;28;20048;-38
2021/09/08 01:43:47;;;;;;;4.63;2.80;;;;;;;19.36;48.06;100535.06;5050719;28;20102;-36
2021/09/08 01:46:22;;;;;;;6.18;2.90;;;;;;;19.48;47.39;100537.75;5051980;28;20025;-36
2021/09/08 01:48:47;;;;;;;8.43;3.20;;;;;;;19.50;46.90;100543.72;5051856;28;20036;-37
2021/09/08 01:51:13;;;;;;;10.40;3.58;;;;;;;19.06;48.69;100546.94;5051690;28;20029;-36
2021/09/08 01:53:38;;;;;;;7.82;3.95;;;;;;;19.08;49.14;100542.13;5051424;28;20028;-37
2021/09/08 01:56:04;;;;;;;12.20;4.43;;;;;;;19.28;48.85;100551.66;5051940;28;20049;-37
2021/09/08 01:58:31;;;;;;;7.68;4.18;;;;;;;19.41;48.63;100550.56;5051592;28;20443;-36
2021/09/08 02:00:56;;;;;;;8.73;4.10;;;;;;;19.38;48.49;100538.38;5051667;28;20025;-37
2021/09/08 02:03:22;;;;;;;8.10;4.13;;;;;;;19.39;48.75;100545.41;5051643;28;20108;-37
2021/09/08 02:05:48;;;;;;;9.35;3.95;;;;;;;19.49;48.66;100540.16;5051648;28;20017;-36
2021/09/08 02:08:13;;;;;;;6.90;4.28;;;;;;;19.56;48.34;100541.91;5051532;28;20017;-36
2021/09/08 02:10:39;;;;;;;7.22;3.65;;;;;;;19.59;48.33;100538.72;5051039;28;20489;-36
2021/09/08 02:13:05;;;;;;;8.23;3.92;;;;;;;19.62;48.08;100536.34;5051513;28;20020;-36
2021/09/08 02:15:31;;;;;;;5.25;3.13;;;;;;;19.61;48.05;100531.19;5050986;28;20032;-36
2021/09/08 02:17:57;;;;;;;8.40;4.00;;;;;;;19.60;48.08;100534.97;5050886;28;20021;-37
2021/09/08 02:20:22;;;;;;;8.27;4.25;;;;;;;19.68;47.39;100535.38;5051041;28;20092;-37
2021/09/08 02:22:48;;;;;;;7.55;3.90;;;;;;;19.52;48.37;100538.88;5050974;28;20104;-37
2021/09/08 02:25:13;;;;;;;8.10;3.42;;;;;;;19.47;48.44;100534.19;5051288;28;20029;-37
2021/09/08 02:27:39;;;;;;;7.20;3.63;;;;;;;19.49;48.11;100534.78;5051209;28;20033;-37
2021/09/08 02:30:05;;;;;;;6.22;3.40;;;;;;;19.59;48.08;100536.00;5050932;28;20497;-37
2021/09/08 02:32:31;;;;;;;7.20;3.60;;;;;;;19.53;47.76;100535.09;5050761;28;20032;-37
2021/09/08 02:34:56;;;;;;;8.18;3.85;;;;;;;19.34;47.82;100527.25;5051305;28;20021;-37
2021/09/08 02:37:22;;;;;;;7.45;3.90;;;;;;;19.32;48.02;100523.97;5050719;28;20025;-37
2021/09/08 02:39:48;;;;;;;7.93;3.55;;;;;;;19.42;48.27;100527.91;5050063;28;20029;-37
2021/09/08 02:42:15;;;;;;;8.77;3.80;;;;;;;19.28;48.55;100520.09;5050673;28;20090;-37
2021/09/08 02:44:41;;;;;;;6.60;3.60;;;;;;;19.30;48.19;100520.66;5050658;28;20017;-36
2021/09/08 02:47:06;;;;;;;7.07;3.47;;;;;;;19.12;48.49;100515.50;5050756;28;20028;-37
2021/09/08 02:49:32;;;;;;;8.20;3.70;;;;;;;19.18;48.41;100521.81;5050393;28;20024;-37
2021/09/08 02:51:57;;;;;;;7.82;3.63;;;;;;;19.21;48.25;100515.91;5050804;28;20547;-36
2021/09/08 02:54:22;;;;;;;6.50;3.70;;;;;;;19.08;48.83;100528.66;5050461;28;20028;-36
2021/09/08 02:56:48;;;;;;;8.48;3.40;;;;;;;18.99;49.49;100529.28;5048978;28;20036;-37
2021/09/08 02:59:13;;;;;;;7.03;3.15;;;;;;;19.07;49.60;100529.69;5050658;28;20044;-37
2021/09/08 03:01:39;;;;;;;6.00;3.10;;;;;;;19.30;48.70;100522.56;5050792;28;20525;-37
2021/09/08 03:04:04;;;;;;;6.95;3.30;;;;;;;19.30;48.62;100517.16;5050515;28;20021;-37
2021/09/08 03:06:30;;;;;;;6.22;3.08;;;;;;;19.17;48.69;100517.47;5050577;28;20029;-37
2021/09/08 03:08:57;;;;;;;7.07;3.20;;;;;;;19.19;48.04;100497.28;5050250;28;20131;-36
2021/09/08 03:11:22;;;;;;;5.70;2.85;;;;;;;19.35;47.40;100517.25;5050499;28;20112;-36
2021/09/08 03:13:48;;;;;;;7.20;2.85;;;;;;;19.38;47.54;100519.50;5050276;28;20021;-36
2021/09/08 03:16:15;;;;;;;9.52;3.35;;;;;;;19.24;48.00;100515.44;5050411;28;20025;-37
2021/09/08 03:18:40;;;;;;;6.95;2.90;;;;;;;19.22;47.92;100509.47;5050103;28;20086;-37
2021/09/08 03:21:05;;;;;;;6.35;3.13;;;;;;;19.16;48.54;100507.75;5050434;28;20025;-37
2021/09/08 03:23:33;;;;;;;8.40;3.25;;;;;;;19.23;48.49;100513.78;5050606;28;20473;-36
2021/09/08 03:25:58;;;;;;;8.73;3.05;;;;;;;19.22;48.15;100517.56;5050517;28;20154;-36
2021/09/08 03:28:24;;;;;;;8.93;2.97;;;;;;;19.28;47.91;100514.69;5049999;28;20021;-36
2021/09/08 03:30:49;;;;;;;7.43;3.15;;;;;;;19.27;48.14;100514.97;5050130;28;20029;-36
2021/09/08 03:33:15;;;;;;;5.53;2.63;;;;;;;19.18;48.10;100513.72;5050122;28;20032;-36
2021/09/08 03:35:40;;;;;;;11.82;3.10;;;;;;;19.16;48.40;100515.84;5049988;28;20029;-36
2021/09/08 03:38:05;;;;;;;9.50;2.80;;;;;;;19.26;48.04;100518.72;5049912;28;20029;-37
2021/09/08 03:40:31;;;;;;;8.65;3.25;;;;;;;19.24;47.91;100516.25;5049927;28;20449;-36
2021/09/08 03:42:56;;;;;;;9.80;3.70;;;;;;;19.31;47.93;100524.22;5049954;28;20083;-37
2021/09/08 03:45:22;;;;;;;7.50;3.40;;;;;;;19.21;47.80;100518.63;5050229;28;20017;-37
2021/09/08 03:47:47;;;;;;;10.25;3.10;;;;;;;19.13;48.46;100515.25;5049884;28;20441;-37
2021/09/08 03:50:13;;;;;;;11.90;3.60;;;;;;;19.31;47.94;100516.13;5049899;28;20029;-37
2021/09/08 03:52:38;;;;;;;8.32;3.30;;;;;;;19.33;47.75;100517.50;5051447;28;20326;-36
2021/09/08 03:55:05;;;;;;;7.82;3.22;;;;;;;19.32;47.80;100521.28;5053181;28;20112;-37
2021/09/08 03:57:30;;;;;;;8.85;3.30;;;;;;;19.28;48.31;100514.69;5053378;28;20029;-35
2021/09/08 03:59:56;;;;;;;10.23;3.50;;;;;;;19.32;48.01;100523.13;5052101;28;20021;-37
2021/09/08 04:02:21;;;;;;;10.35;3.42;;;;;;;19.27;48.03;100523.88;5052913;28;20028;-36
2021/09/08 04:04:47;;;;;;;9.20;3.88;;;;;;;19.17;48.37;100534.47;5053000;28;20109;-36
2021/09/08 04:07:12;;;;;;;12.55;3.72;;;;;;;19.23;48.01;100528.13;5052896;28;20041;-36
2021/09/08 04:09:38;;;;;;;9.20;3.58;;;;;;;19.16;47.98;100524.75;5052497;28;20409;-36
2021/09/08 04:12:03;;;;;;;8.02;3.45;;;;;;;19.06;48.97;100524.56;5052931;28;20028;-37
2021/09/08 04:14:29;;;;;;;8.43;3.53;;;;;;;19.20;48.54;100519.69;5051301;28;20091;-37
2021/09/08 04:16:54;;;;;;;10.32;3.67;;;;;;;19.45;48.58;100536.31;5053041;28;20028;-37
2021/09/08 04:19:20;;;;;;;10.20;3.92;;;;;;;19.66;48.38;100528.59;5052865;28;20370;-37
2021/09/08 04:21:46;;;;;;;9.77;3.80;;;;;;;19.92;47.86;100530.66;5052733;28;20025;-37
2021/09/08 04:24:11;;;;;;;11.57;4.25;;;;;;;20.17;47.44;100526.72;5051567;28;20392;-38
2021/09/08 04:26:37;;;;;;;14.65;4.20;;;;;;;20.47;47.14;100529.03;5052719;28;20082;-35
2021/09/08 04:29:02;;;;;;;10.45;4.30;;;;;;;20.58;46.46;100527.28;5052589;28;20136;-37
2021/09/08 04:31:27;;;;;;;13.25;4.50;;;;;;;20.69;45.76;100531.78;5052284;28;20021;-38
2021/09/08 04:33:53;;;;;;;11.43;4.55;;;;;;;20.65;46.47;100529.81;5052562;28;20409;-37
2021/09/08 04:36:18;;;;;;;10.27;4.40;;;;;;;20.54;46.69;100534.22;5052310;28;20464;-36
2021/09/08 04:38:47;;;;;;;17.48;4.72;;;;;;;20.49;46.56;100536.88;5052461;28;20028;-37
2021/09/08 04:41:13;;;;;;;15.48;5.25;;;;;;;20.58;46.61;100540.81;5045193;28;20032;-36
2021/09/08 04:43:39;;;;;;;20.13;6.70;;;;;;;20.55;46.19;100538.59;5045543;28;20179;-36
2021/09/08 04:46:04;;;;;;;15.85;6.13;;;;;;;20.69;46.04;100542.59;5036369;28;20040;-37
2021/09/08 04:48:30;;;;;;;15.45;6.13;;;;;;;20.72;45.96;100540.47;5047461;28;20033;-35
2021/09/08 04:50:55;;;;;;;15.32;6.40;;;;;;;20.81;45.52;100549.75;5052154;28;20032;-36
2021/09/08 04:53:21;;;;;;;18.33;6.75;;;;;;;20.90;45.15;100556.34;5052269;28;20029;-36
2021/09/08 04:55:46;;;;;;;13.45;6.30;;;;;;;21.06;44.73;100551.97;5052064;28;20075;-36
2021/09/08 04:58:12;;;;;;;17.33;6.25;;;;;;;21.03;44.78;100550.56;5052023;28;20041;-36
2021/09/08 05:00:37;;;;;;;15.95;7.55;;;;;;;21.18;44.49;100551.81;5051961;28;20381;-36
2021/09/08 05:03:03;;;;;;;19.67;7.47;;;;;;;21.28;44.78;100546.50;5051586;28;20074;-36
2021/09/08 05:05:28;;;;;;;17.35;5.90;;;;;;;21.40;44.40;100520.09;5051943;28;20112;-37
2021/09/08 05:07:54;;;;;;;20.58;6.57;;;;;;;21.82;43.82;100556.50;5052029;28;20028;-36
2021/09/08 05:10:19;;;;;;;15.88;6.57;;;;;;;21.96;43.97;100554.19;5051532;28;20539;-37
2021/09/08 05:12:45;;;;;;;18.90;6.28;;;;;;;22.27;43.32;100547.09;5051833;28;20090;-37
2021/09/08 05:15:10;;;;;;;17.48;6.50;;;;;;;22.48;42.07;100549.91;5051492;28;20119;-38
2021/09/08 05:17:36;;;;;;;14.88;5.55;;;;;;;22.77;40.62;100545.72;5051567;28;20083;-37
2021/09/08 05:20:06;;;;;;;19.13;6.50;;;;;;;21.99;42.16;100545.50;5051425;28;20032;-37
2021/09/08 05:22:31;;;;;;;13.30;5.40;;;;;;;22.69;40.44;100542.69;5051448;28;20527;-37
2021/09/08 05:24:56;;;;;;;13.43;4.88;;;;;;;22.96;39.58;100542.53;5051334;28;20048;-36
2021/09/08 05:27:22;;;;;;;7.18;3.70;;;;;;;23.23;38.94;100542.38;5051428;28;20048;-37
2021/09/08 05:29:47;;;;;;;7.35;3.30;;;;;;;23.40;38.66;100544.84;5050038;28;20029;-37
2021/09/08 05:32:13;;;;;;;9.82;3.15;;;;;;;23.70;37.85;100544.03;5050918;28;20036;-37
2021/09/08 05:34:38;;;;;;;8.35;3.47;;;;;;;24.09;37.40;100538.06;5050976;28;20636;-37
2021/09/08 05:37:04;;;;;;;8.25;3.25;;;;;;;24.23;36.29;100540.22;5049661;28;20032;-37
2021/09/08 05:39:29;;;;;;;11.32;3.25;;;;;;;24.15;36.34;100531.53;5050724;28;20029;-37
2021/09/08 05:41:55;;;;;;;13.13;3.80;;;;;;;23.85;37.06;100535.09;5051409;28;20045;-37
2021/09/08 05:44:20;;;;;;;8.60;3.58;;;;;;;24.23;36.93;100534.78;5051502;28;20032;-36
2021/09/08 05:46:46;;;;;;;12.00;3.40;;;;;;;24.80;35.56;100533.53;5051582;28;20115;-36
2021/09/08 05:49:12;;;;;;;12.32;3.70;;;;;;;24.89;35.44;100531.84;5051072;28;20090;-37
2021/09/08 05:51:39;;;;;;;9.50;3.60;;;;;;;25.01;35.32;100528.78;5050910;28;20120;-37
2021/09/08 05:54:06;;;;;;;7.65;2.92;;;;;;;25.49;34.11;100536.41;5050171;28;20060;-37
2021/09/08 05:56:32;;;;;;;7.10;2.80;;;;;;;25.87;33.29;100531.19;5050796;28;20057;-37
2021/09/08 05:58:57;;;;;;;9.07;2.92;;;;;;;25.07;34.41;100532.28;5050443;28;20056;-37
2021/09/08 06:01:23;;;;;;;20.08;13.63;;;;;;;25.12;34.43;100530.34;5050788;28;20031;-36
2021/09/08 06:03:48;;;;;;;34.53;20.52;;;;;;;25.17;34.36;100535.78;5050410;28;20033;-35
2021/09/08 06:06:14;;;;;;;21.42;14.18;;;;;;;25.71;33.53;100539.50;5051260;28;20033;-37
2021/09/08 06:08:39;;;;;;;7.00;3.05;;;;;;;26.23;32.71;100539.06;5051042;28;20498;-37
2021/09/08 06:11:05;;;;;;;8.85;2.97;;;;;;;26.53;32.56;100541.44;5051147;28;20405;-37
2021/09/08 06:13:30;;;;;;;8.30;3.42;;;;;;;26.69;32.09;100539.38;5051280;28;20028;-37
2021/09/08 06:15:56;;;;;;;8.02;3.22;;;;;;;26.12;32.98;100547.34;5050349;28;20029;-38
2021/09/08 06:18:21;;;;;;;9.32;3.10;;;;;;;25.72;33.60;100538.41;5050717;28;20032;-38
2021/09/08 06:20:46;;;;;;;7.05;2.78;;;;;;;25.87;33.37;100545.63;5051050;28;20075;-37
2021/09/08 06:23:12;;;;;;;7.40;2.80;;;;;;;26.63;32.44;100539.72;5051608;28;20025;-37
2021/09/08 06:25:38;;;;;;;11.05;2.85;;;;;;;27.19;31.84;100543.59;5051117;28;20487;-37
2021/09/08 06:28:04;;;;;;;7.32;2.67;;;;;;;27.59;30.54;100542.22;5050916;28;20021;-37
2021/09/08 06:30:29;;;;;;;7.57;2.47;;;;;;;27.71;29.41;100536.28;5050827;28;20432;-37
2021/09/08 06:32:54;;;;;;;6.82;2.65;;;;;;;27.88;29.12;100547.50;5050732;28;20024;-38
2021/09/08 06:35:20;;;;;;;6.63;2.60;;;;;;;27.93;29.46;100549.34;5051159;28;20021;-37
2021/09/08 06:37:45;;;;;;;7.63;3.10;;;;;;;26.50;32.07;100539.31;5050573;28;20451;-37
2021/09/08 06:40:12;;;;;;;7.88;2.95;;;;;;;26.04;32.67;100544.41;5048741;28;20024;-37
2021/09/08 06:42:37;;;;;;;5.15;2.60;;;;;;;26.29;32.45;100546.91;5050678;28;20055;-36
2021/09/08 06:45:03;;;;;;;5.15;2.80;;;;;;;26.33;32.17;100541.66;5049889;28;20488;-37
2021/09/08 06:47:28;;;;;;;9.23;2.95;;;;;;;26.46;31.52;100545.63;5050197;28;20021;-37
2021/09/08 06:49:54;;;;;;;10.65;3.30;;;;;;;26.71;31.49;100541.78;5050083;28;20040;-37
2021/09/08 06:52:20;;;;;;;19.33;4.38;;;;;;;26.32;32.08;100546.31;5049989;28;20087;-38
2021/09/08 06:54:45;;;;;;;4.68;3.00;;;;;;;26.96;31.25;100545.28;5049939;28;20116;-36
2021/09/08 06:57:13;;;;;;;5.68;3.10;;;;;;;26.71;31.33;100548.09;5049630;28;20164;-36
2021/09/08 06:59:40;;;;;;;6.18;3.25;;;;;;;25.98;32.82;100551.84;5049613;28;20048;-36
2021/09/08 07:02:06;;;;;;;9.40;2.90;;;;;;;25.88;33.00;100552.72;5049508;28;20027;-37
2021/09/08 07:04:32;;;;;;;7.80;3.05;;;;;;;25.47;33.50;100558.47;5049131;28;20021;-38
2021/09/08 07:06:58;;;;;;;8.52;2.95;;;;;;;25.92;32.56;100556.53;5049293;28;20461;-38
2021/09/08 07:09:23;;;;;;;7.35;2.75;;;;;;;25.33;33.44;100561.03;5048630;28;20429;-37
2021/09/08 07:11:49;;;;;;;6.13;2.70;;;;;;;25.07;33.72;100560.34;5049094;28;20087;-37
2021/09/08 07:14:14;;;;;;;5.70;2.70;;;;;;;25.03;34.47;100555.75;5048743;28;20033;-38
2021/09/08 07:16:39;;;;;;;5.80;2.50;;;;;;;24.23;35.68;100561.97;5049076;28;20021;-36
2021/09/08 07:19:05;;;;;;;3.28;2.60;;;;;;;24.73;34.71;100561.06;5049204;28;20504;-37
2021/09/08 07:21:30;;;;;;;6.32;3.00;;;;;;;24.32;35.52;100565.78;5049018;28;20020;-37
2021/09/08 07:23:56;;;;;;;6.60;4.38;;;;;;;23.88;36.02;100569.09;5049503;28;20029;-37
2021/09/08 07:26:21;;;;;;;12.50;7.72;;;;;;;24.05;36.52;100574.25;5051109;28;20131;-36
2021/09/08 07:28:47;;;;;;;5.25;2.85;;;;;;;24.53;35.28;100572.81;5053329;28;20500;-37
2021/09/08 07:31:12;;;;;;;6.20;2.50;;;;;;;24.78;34.94;100568.38;5053103;28;20032;-37
2021/09/08 07:33:38;;;;;;;4.15;2.70;;;;;;;24.37;35.77;100573.94;5053232;28;20033;-37
2021/09/08 07:36:03;;;;;;;5.80;2.70;;;;;;;23.78;36.94;100584.31;5052102;28;20032;-37
2021/09/08 07:38:29;;;;;;;4.05;2.53;;;;;;;23.29;37.36;100576.59;5053357;28;20024;-38
2021/09/08 07:40:55;;;;;;;4.53;2.78;;;;;;;23.73;36.68;100583.44;5053077;28;20409;-36
2021/09/08 07:43:21;;;;;;;15.93;9.07;;;;;;;24.41;35.97;100580.44;5052032;28;20229;-37
2021/09/08 07:45:46;;;;;;;5.63;2.80;;;;;;;24.47;36.00;100578.53;5052865;28;20040;-37
2021/09/08 07:48:12;;;;;;;5.72;2.60;;;;;;;24.90;34.74;100577.03;5052754;28;20040;-35
2021/09/08 07:50:38;;;;;;;4.72;2.60;;;;;;;25.37;34.65;100588.53;5052890;28;20031;-38
2021/09/08 07:53:08;;;;;;;5.10;2.80;;;;;;;25.41;34.40;100586.06;5053177;28;20500;-37
2021/09/08 07:55:34;;;;;;;4.97;2.33;;;;;;;25.09;34.26;100590.84;5053182;28;20110;-38
2021/09/08 07:57:59;;;;;;;5.03;2.70;;;;;;;25.21;34.37;100579.59;5052863;28;20518;-37
2021/09/08 08:00:25;;;;;;;4.05;2.42;;;;;;;24.40;35.21;100584.22;5052765;28;20102;-37
2021/09/08 08:02:51;;;;;;;3.95;2.60;;;;;;;23.74;36.92;100590.50;5052643;28;20401;-37
2021/09/08 08:05:16;;;;;;;5.20;2.50;;;;;;;23.77;36.54;100588.06;5051794;28;20100;-37
2021/09/08 08:07:43;;;;;;;3.78;2.63;;;;;;;23.95;36.80;100578.59;5050452;28;20372;-37
2021/09/08 08:10:09;;;;;;;4.60;2.70;;;;;;;23.91;36.90;100582.94;5050052;28;20061;-37
2021/09/08 08:12:34;;;;;;;37.65;24.17;;;;;;;24.49;35.28;100579.88;5051224;28;20044;-37
2021/09/08 08:15:00;;;;;;;10.98;2.90;;;;;;;24.67;34.92;100581.19;5052165;28;20133;-37
2021/09/08 08:17:25;;;;;;;5.57;2.42;;;;;;;24.38;33.89;100575.53;5047653;28;20025;-38
2021/09/08 08:19:51;;;;;;;4.95;2.30;;;;;;;23.76;36.02;100580.16;5052186;28;20512;-37
2021/09/08 08:22:16;;;;;;;4.90;2.40;;;;;;;23.74;35.80;100574.19;5051954;28;20044;-37
2021/09/08 08:24:42;;;;;;;5.22;2.50;;;;;;;24.04;35.14;100569.88;5052060;28;20135;-37
2021/09/08 08:27:08;;;;;;;5.43;2.28;;;;;;;23.97;35.68;100570.97;5052112;28;20316;-36
2021/09/08 08:29:33;;;;;;;5.00;2.40;;;;;;;24.42;34.94;100573.91;5052058;28;20020;-37
2021/09/08 08:31:58;;;;;;;3.45;2.45;;;;;;;24.60;34.82;100558.94;5051974;28;20051;-37
2021/09/08 08:34:24;;;;;;;5.82;2.33;;;;;;;24.70;33.82;100556.16;5052340;28;20056;-38
2021/09/08 08:36:49;;;;;;;8.55;2.30;;;;;;;24.18;34.51;100560.91;5052339;28;20477;-37
2021/09/08 08:39:15;;;;;;;5.78;2.20;;;;;;;23.70;35.39;100563.06;5051953;28;20515;-37
2021/09/08 08:41:40;;;;;;;4.18;2.03;;;;;;;24.05;34.53;100558.75;5051636;28;20393;-37
2021/09/08 08:44:06;;;;;;;4.65;2.58;;;;;;;23.64;35.96;100563.34;5052120;28;20061;-37
2021/09/08 08:46:31;;;;;;;4.20;2.30;;;;;;;24.15;34.69;100557.91;5052237;28;20467;-37
2021/09/08 08:48:57;;;;;;;6.00;2.40;;;;;;;24.53;34.27;100563.84;5052089;28;20145;-37
2021/09/08 08:51:22;;;;;;;5.10;2.20;;;;;;;24.74;33.98;100559.13;5052440;28;20032;-37
2021/09/08 08:53:49;;;;;;;5.65;2.80;;;;;;;25.01;33.60;100555.22;5052198;28;20036;-37
2021/09/08 08:56:15;;;;;;;6.25;2.60;;;;;;;25.05;34.08;100550.81;5051994;28;20032;-37
2021/09/08 08:58:41;;;;;;;3.65;2.10;;;;;;;24.79;32.94;100534.63;5050818;28;20041;-38
2021/09/08 09:01:14;;;;;;;3.75;2.35;;;;;;;24.52;33.73;100545.88;5051814;28;20017;-37
2021/09/08 09:03:40;;;;;;;5.40;2.30;;;;;;;24.70;33.40;100558.88;5052212;28;20493;-37
2021/09/08 09:06:05;;;;;;;4.05;2.05;;;;;;;23.97;34.26;100548.41;5050970;28;20507;-37
2021/09/08 09:08:33;;;;;;;3.95;2.10;;;;;;;23.50;35.31;100549.47;5051351;28;20033;-38
2021/09/08 09:10:58;;;;;;;4.72;2.08;;;;;;;23.57;34.93;100537.25;5051323;28;20047;-37
2021/09/08 09:13:30;;;;;;;3.80;2.10;;;;;;;23.98;34.50;100548.13;5050972;28;20028;-38
2021/09/08 09:16:09;;;;;;;6.00;2.20;;;;;;;23.99;34.34;100535.38;5050350;28;20035;-38
2021/09/08 09:18:44;;;;;;;5.95;2.33;;;;;;;24.09;33.74;100539.97;5051699;28;20455;-38
2021/09/08 09:21:11;;;;;;;4.60;2.20;;;;;;;24.40;33.60;100546.16;5051770;28;20476;-38
2021/09/08 09:23:47;;;;;;;4.45;2.65;;;;;;;24.24;33.53;100526.34;5051341;28;20067;-36
2021/09/08 09:26:13;;;;;;;5.72;2.00;;;;;;;24.12;33.74;100526.66;5051594;28;20031;-37
2021/09/08 09:28:42;;;;;;;3.03;2.15;;;;;;;24.63;33.12;100538.50;5051604;28;20051;-37
2021/09/08 09:31:15;;;;;;;3.78;2.10;;;;;;;23.43;35.12;100520.66;5051405;28;20150;-37
2021/09/08 09:33:48;;;;;;;4.95;2.05;;;;;;;23.51;35.28;100523.94;5051072;28;20044;-37
2021/09/08 09:36:18;;;;;;;3.47;2.17;;;;;;;24.17;33.57;100513.03;5051079;28;20029;-37
2021/09/08 09:38:44;;;;;;;2.88;1.92;;;;;;;23.93;34.05;100490.25;5050952;28;20472;-37
2021/09/08 09:41:10;;;;;;;3.15;2.20;;;;;;;23.76;34.74;100515.78;5051027;28;20025;-36
2021/09/08 09:43:40;;;;;;;4.85;2.10;;;;;;;23.67;34.84;100514.72;5051375;28;20029;-37
2021/09/08 09:46:07;;;;;;;3.08;2.10;;;;;;;23.31;35.42;100511.16;5051252;28;20507;-37
2021/09/08 09:48:32;;;;;;;4.55;2.35;;;;;;;23.30;35.33;100509.53;5050524;28;20025;-36
2021/09/08 09:51:01;;;;;;;3.22;2.13;;;;;;;23.58;34.81;100509.00;5049361;28;20033;-37
2021/09/08 09:53:30;;;;;;;3.53;2.05;;;;;;;23.46;34.46;100503.03;5050724;28;20415;-37
2021/09/08 09:55:56;;;;;;;2.85;1.98;;;;;;;23.45;34.53;100506.00;5050763;28;20044;-37
2021/09/08 09:58:21;;;;;;;2.95;2.00;;;;;;;23.48;34.13;100492.69;5050675;28;20094;-37
2021/09/08 10:00:47;;;;;;;4.38;2.25;;;;;;;24.30;33.45;100497.25;5033080;28;20029;-37
2021/09/08 10:03:13;;;;;;;4.40;2.40;;;;;;;24.36;33.43;100499.66;5050217;28;20017;-38
2021/09/08 10:05:38;;;;;;;6.68;2.30;;;;;;;24.74;33.11;100488.38;5050856;28;20037;-37
2021/09/08 10:08:04;;;;;;;6.53;2.40;;;;;;;24.53;32.57;100490.38;5049038;28;20024;-37
2021/09/08 10:10:30;;;;;;;4.20;2.20;;;;;;;24.51;32.95;100487.94;5032497;28;20048;-37
2021/09/08 10:13:10;;;;;;;4.25;2.10;;;;;;;24.42;33.53;100484.13;5032586;28;20025;-37
2021/09/08 10:15:35;;;;;;;3.97;2.35;;;;;;;24.23;33.00;100483.94;5034263;28;20024;-38
2021/09/08 10:18:08;;;;;;;4.90;2.33;;;;;;;23.72;34.13;100479.41;5048363;28;20507;-38
2021/09/08 10:20:33;;;;;;;4.55;2.10;;;;;;;24.27;33.89;100476.03;5049270;28;20082;-37
2021/09/08 10:23:08;;;;;;;6.38;2.22;;;;;;;24.64;32.86;100489.25;5050144;28;20032;-37
2021/09/08 10:25:34;;;;;;;6.25;2.10;;;;;;;24.52;33.33;100469.69;5050725;28;20025;-37
2021/09/08 10:27:59;;;;;;;4.72;2.20;;;;;;;25.01;33.03;100468.91;5049092;28;20476;-37
2021/09/08 10:30:25;;;;;;;4.63;2.22;;;;;;;25.28;31.82;100468.44;5050471;28;20021;-37
2021/09/08 10:32:51;;;;;;;4.88;2.00;;;;;;;25.01;32.17;100471.63;5050125;28;20025;-39
2021/09/08 10:35:17;;;;;;;3.33;2.00;;;;;;;24.89;32.19;100476.59;5050592;28;20511;-38
2021/09/08 10:37:50;;;;;;;4.05;2.22;;;;;;;25.11;32.22;100471.56;5050462;28;20025;-38
2021/09/08 10:40:19;;;;;;;2.55;1.70;;;;;;;24.75;32.96;100466.34;5050347;28;20107;-37
2021/09/08 10:42:57;;;;;;;4.40;2.10;;;;;;;24.59;32.84;100460.16;5050433;28;20039;-37
2021/09/08 10:45:26;;;;;;;19.30;14.18;;;;;;;25.00;32.21;100452.84;5050667;28;20150;-38
2021/09/08 10:47:52;;;;;;;3.13;2.13;;;;;;;25.40;31.28;100461.81;5050371;28;20037;-36
2021/09/08 10:50:45;;;;;;;4.57;2.08;;;;;;;24.44;33.14;100449.31;5050460;28;20086;-37
2021/09/08 10:53:20;;;;;;;5.20;2.67;;;;;;;24.72;33.25;100452.47;5051110;28;20021;-37
2021/09/08 10:55:47;;;;;;;5.63;2.28;;;;;;;25.12;32.06;100451.41;5051341;28;20032;-37
2021/09/08 10:58:12;;;;;;;4.25;2.17;;;;;;;25.13;32.64;100463.94;5050628;28;20025;-37
2021/09/08 11:00:39;;;;;;;3.92;2.05;;;;;;;25.31;31.92;100450.75;5050361;28;20024;-37
2021/09/08 11:03:24;;;;;;;4.88;2.10;;;;;;;25.40;31.87;100440.03;5050290;28;20085;-37
2021/09/08 11:05:57;;;;;;;4.03;2.00;;;;;;;25.60;31.49;100444.50;5050052;28;20576;-37
2021/09/08 11:08:26;;;;;;;5.82;2.10;;;;;;;26.39;30.14;100439.56;5057304;28;20118;-38
2021/09/08 11:11:19;;;;;;;5.32;2.00;;;;;;;25.80;31.07;100451.66;5060668;28;20508;-36
2021/09/08 11:13:53;;;;;;;5.30;1.85;;;;;;;25.61;31.46;100440.66;5061491;28;20049;-37
2021/09/08 11:16:27;;;;;;;4.63;2.25;;;;;;;25.67;31.47;100439.53;5053796;28;20025;-37
2021/09/08 11:18:53;;;;;;;4.05;2.00;;;;;;;25.96;30.92;100438.72;5060401;28;20031;-38
2021/09/08 11:21:21;;;;;;;5.07;1.98;;;;;;;25.86;30.63;100429.53;5063293;28;20202;-37